sensor_id;sensor_type;location;lat;lon;timestamp;temperature;humidity
38910;DHT22;24676;51.360;12.354;2022-09-20T04:05:17;9.60;99.90
38910;DHT22;24676;51.360;12.354;2022-09-20T04:08:23;9.60;99.90
38910;DHT22;24676;51.360;12.354;2022-09-20T04:11:36;9.60;99.90
38910;DHT22;24676;51.360;12.354;2022-09-20T04:20:45;9.60;99.90
38910;DHT22;24676;51.360;12.354;2022-09-20T04:23:53;9.60;99.90
38910;DHT22;24676;51.360;12.354;2022-09-20T04:26:44;9.60;99.90
38910;DHT22;24676;51.360;12.354;2022-09-20T04:36:16;9.50;99.90
38910;DHT22;24676;51.360;12.354;2022-09-20T05:25:18;10.10;99.90
38910;DHT22;24676;51.360;12.354;2022-09-20T05:28:21;10.10;99.90
38910;DHT22;24676;51.360;12.354;2022-09-20T05:44:14;10.20;99.90
38910;DHT22;24676;51.360;12.354;2022-09-20T06:11:54;10.40;99.90
38910;DHT22;24676;51.360;12.354;2022-09-20T06:15:09;10.40;99.90
38910;DHT22;24676;51.360;12.354;2022-09-20T06:21:53;10.50;99.90
38910;DHT22;24676;51.360;12.354;2022-09-20T06:24:47;10.60;99.90
38910;DHT22;24676;51.360;12.354;2022-09-20T06:27:46;10.70;99.90
38910;DHT22;24676;51.360;12.354;2022-09-20T06:30:39;10.80;99.90
38910;DHT22;24676;51.360;12.354;2022-09-20T06:33:27;10.90;99.90
38910;DHT22;24676;51.360;12.354;2022-09-20T06:36:14;10.90;99.90
38910;DHT22;24676;51.360;12.354;2022-09-20T06:42:36;10.90;99.90
38910;DHT22;24676;51.360;12.354;2022-09-20T06:45:21;10.90;99.90
38910;DHT22;24676;51.360;12.354;2022-09-20T06:48:07;10.90;99.90
38910;DHT22;24676;51.360;12.354;2022-09-20T06:50:56;10.90;99.90
38910;DHT22;24676;51.360;12.354;2022-09-20T06:53:41;11.00;99.90
38910;DHT22;24676;51.360;12.354;2022-09-20T06:56:27;11.00;99.90
38910;DHT22;24676;51.360;12.354;2022-09-20T06:59:13;11.00;99.90
38910;DHT22;24676;51.360;12.354;2022-09-20T07:01:58;11.10;99.90
38910;DHT22;24676;51.360;12.354;2022-09-20T07:04:42;11.20;99.90
38910;DHT22;24676;51.360;12.354;2022-09-20T07:07:28;11.30;99.90
38910;DHT22;24676;51.360;12.354;2022-09-20T07:10:13;11.50;99.90
38910;DHT22;24676;51.360;12.354;2022-09-20T07:12:59;11.60;99.90
38910;DHT22;24676;51.360;12.354;2022-09-20T07:15:43;11.70;99.90
38910;DHT22;24676;51.360;12.354;2022-09-20T07:18:27;11.70;99.90
38910;DHT22;24676;51.360;12.354;2022-09-20T07:21:14;11.70;99.90
38910;DHT22;24676;51.360;12.354;2022-09-20T07:23:58;11.80;99.90
38910;DHT22;24676;51.360;12.354;2022-09-20T07:27:01;11.80;99.90
38910;DHT22;24676;51.360;12.354;2022-09-20T07:29:46;11.80;99.90
38910;DHT22;24676;51.360;12.354;2022-09-20T07:32:30;11.80;99.90
38910;DHT22;24676;51.360;12.354;2022-09-20T07:35:15;11.80;99.90
38910;DHT22;24676;51.360;12.354;2022-09-20T07:37:59;11.90;99.90
38910;DHT22;24676;51.360;12.354;2022-09-20T07:40:44;12.00;99.90
38910;DHT22;24676;51.360;12.354;2022-09-20T07:43:29;12.00;99.90
38910;DHT22;24676;51.360;12.354;2022-09-20T07:46:13;12.10;99.90
38910;DHT22;24676;51.360;12.354;2022-09-20T07:48:57;12.10;99.90
38910;DHT22;24676;51.360;12.354;2022-09-20T07:51:42;12.20;99.90
38910;DHT22;24676;51.360;12.354;2022-09-20T07:54:26;12.30;99.90
38910;DHT22;24676;51.360;12.354;2022-09-20T07:57:11;12.30;99.90
38910;DHT22;24676;51.360;12.354;2022-09-20T07:59:56;12.30;99.90
38910;DHT22;24676;51.360;12.354;2022-09-20T08:02:40;12.50;99.90
38910;DHT22;24676;51.360;12.354;2022-09-20T08:05:24;12.70;99.90
38910;DHT22;24676;51.360;12.354;2022-09-20T08:08:08;13.00;99.90
38910;DHT22;24676;51.360;12.354;2022-09-20T08:11:04;13.20;99.90
38910;DHT22;24676;51.360;12.354;2022-09-20T08:13:53;13.40;99.90
38910;DHT22;24676;51.360;12.354;2022-09-20T08:16:40;13.50;99.90
38910;DHT22;24676;51.360;12.354;2022-09-20T08:19:25;13.70;99.90
38910;DHT22;24676;51.360;12.354;2022-09-20T08:22:09;13.90;99.90
38910;DHT22;24676;51.360;12.354;2022-09-20T08:24:55;14.50;99.90
38910;DHT22;24676;51.360;12.354;2022-09-20T08:27:39;14.70;99.90
38910;DHT22;24676;51.360;12.354;2022-09-20T08:30:23;14.60;99.90
38910;DHT22;24676;51.360;12.354;2022-09-20T08:33:07;14.30;99.90
38910;DHT22;24676;51.360;12.354;2022-09-20T08:35:52;13.80;99.90
38910;DHT22;24676;51.360;12.354;2022-09-20T08:38:37;13.70;99.90
38910;DHT22;24676;51.360;12.354;2022-09-20T08:41:30;13.80;99.90
38910;DHT22;24676;51.360;12.354;2022-09-20T08:44:22;13.90;99.90
38910;DHT22;24676;51.360;12.354;2022-09-20T08:47:24;13.90;99.90
38910;DHT22;24676;51.360;12.354;2022-09-20T08:50:10;13.90;99.90
38910;DHT22;24676;51.360;12.354;2022-09-20T08:52:59;13.90;99.90
38910;DHT22;24676;51.360;12.354;2022-09-20T08:55:47;14.10;99.90
38910;DHT22;24676;51.360;12.354;2022-09-20T08:58:31;14.40;99.90
38910;DHT22;24676;51.360;12.354;2022-09-20T09:01:24;14.90;99.90
38910;DHT22;24676;51.360;12.354;2022-09-20T09:04:23;15.20;99.90
38910;DHT22;24676;51.360;12.354;2022-09-20T09:07:13;15.30;99.90
38910;DHT22;24676;51.360;12.354;2022-09-20T09:09:57;15.50;99.90
38910;DHT22;24676;51.360;12.354;2022-09-20T09:12:42;15.60;99.90
38910;DHT22;24676;51.360;12.354;2022-09-20T09:15:35;15.50;99.90
38910;DHT22;24676;51.360;12.354;2022-09-20T09:18:20;15.40;99.90
38910;DHT22;24676;51.360;12.354;2022-09-20T09:21:06;15.50;99.90
38910;DHT22;24676;51.360;12.354;2022-09-20T09:23:56;15.50;99.90
38910;DHT22;24676;51.360;12.354;2022-09-20T09:26:44;15.30;99.90
38910;DHT22;24676;51.360;12.354;2022-09-20T09:29:29;15.20;99.90
38910;DHT22;24676;51.360;12.354;2022-09-20T09:35:29;16.30;99.90
38910;DHT22;24676;51.360;12.354;2022-09-20T09:38:19;17.50;99.90
38910;DHT22;24676;51.360;12.354;2022-09-20T09:41:28;18.30;95.50
38910;DHT22;24676;51.360;12.354;2022-09-20T09:44:23;17.70;94.90
38910;DHT22;24676;51.360;12.354;2022-09-20T09:47:25;17.50;95.50
38910;DHT22;24676;51.360;12.354;2022-09-20T09:50:27;17.00;97.60
38910;DHT22;24676;51.360;12.354;2022-09-20T09:53:21;16.30;99.80
38910;DHT22;24676;51.360;12.354;2022-09-20T09:59:40;15.50;99.90
38910;DHT22;24676;51.360;12.354;2022-09-20T10:02:55;15.40;99.90
38910;DHT22;24676;51.360;12.354;2022-09-20T10:12:28;16.20;99.90
38910;DHT22;24676;51.360;12.354;2022-09-20T10:15:26;17.80;95.60
38910;DHT22;24676;51.360;12.354;2022-09-20T10:18:29;17.90;92.20
38910;DHT22;24676;51.360;12.354;2022-09-20T10:21:54;17.80;91.90
38910;DHT22;24676;51.360;12.354;2022-09-20T10:24:55;18.10;90.50
38910;DHT22;24676;51.360;12.354;2022-09-20T10:33:59;21.50;72.60
38910;DHT22;24676;51.360;12.354;2022-09-20T10:36:53;23.10;60.20
38910;DHT22;24676;51.360;12.354;2022-09-20T10:39:39;22.40;57.80
38910;DHT22;24676;51.360;12.354;2022-09-20T10:42:48;21.50;60.70
38910;DHT22;24676;51.360;12.354;2022-09-20T11:01:11;19.50;67.00
38910;DHT22;24676;51.360;12.354;2022-09-20T11:19:49;16.70;99.90
38910;DHT22;24676;51.360;12.354;2022-09-20T11:22:59;18.70;99.90
38910;DHT22;24676;51.360;12.354;2022-09-20T11:25:56;19.90;88.50
38910;DHT22;24676;51.360;12.354;2022-09-20T11:28:47;21.80;67.60
38910;DHT22;24676;51.360;12.354;2022-09-20T11:31:38;23.00;60.50
38910;DHT22;24676;51.360;12.354;2022-09-20T11:34:31;22.10;62.70
38910;DHT22;24676;51.360;12.354;2022-09-20T11:37:17;20.90;66.70
38910;DHT22;24676;51.360;12.354;2022-09-20T11:40:23;19.60;67.70
38910;DHT22;24676;51.360;12.354;2022-09-20T11:43:09;18.80;73.60
38910;DHT22;24676;51.360;12.354;2022-09-20T11:45:58;18.40;75.00
38910;DHT22;24676;51.360;12.354;2022-09-20T11:55:20;19.40;81.90
38910;DHT22;24676;51.360;12.354;2022-09-20T11:58:13;21.30;68.60
38910;DHT22;24676;51.360;12.354;2022-09-20T12:00:59;21.40;60.10
38910;DHT22;24676;51.360;12.354;2022-09-20T12:03:49;20.70;59.90
38910;DHT22;24676;51.360;12.354;2022-09-20T12:06:36;21.20;62.40
38910;DHT22;24676;51.360;12.354;2022-09-20T12:09:29;21.60;59.90
38910;DHT22;24676;51.360;12.354;2022-09-20T12:12:38;21.80;59.80
38910;DHT22;24676;51.360;12.354;2022-09-20T12:15:31;22.70;58.50
38910;DHT22;24676;51.360;12.354;2022-09-20T12:21:16;23.40;57.10
38910;DHT22;24676;51.360;12.354;2022-09-20T12:24:15;23.60;52.60
38910;DHT22;24676;51.360;12.354;2022-09-20T12:27:14;22.80;52.00
38910;DHT22;24676;51.360;12.354;2022-09-20T12:30:20;21.70;54.10
38910;DHT22;24676;51.360;12.354;2022-09-20T12:33:18;20.30;56.60
38910;DHT22;24676;51.360;12.354;2022-09-20T12:36:15;19.30;58.70
38910;DHT22;24676;51.360;12.354;2022-09-20T12:42:02;18.10;66.00
38910;DHT22;24676;51.360;12.354;2022-09-20T12:45:04;17.70;68.00
38910;DHT22;24676;51.360;12.354;2022-09-20T12:47:52;17.30;71.80
38910;DHT22;24676;51.360;12.354;2022-09-20T12:50:38;17.20;76.30
38910;DHT22;24676;51.360;12.354;2022-09-20T12:53:41;17.20;81.00
38910;DHT22;24676;51.360;12.354;2022-09-20T12:56:25;17.40;74.90
38910;DHT22;24676;51.360;12.354;2022-09-20T12:59:22;17.40;71.00
38910;DHT22;24676;51.360;12.354;2022-09-20T13:05:32;17.60;66.10
38910;DHT22;24676;51.360;12.354;2022-09-20T13:16:59;17.90;70.90
38910;DHT22;24676;51.360;12.354;2022-09-20T13:19:46;17.40;69.20
38910;DHT22;24676;51.360;12.354;2022-09-20T13:22:37;17.10;71.50
38910;DHT22;24676;51.360;12.354;2022-09-20T13:25:27;17.00;74.30
38910;DHT22;24676;51.360;12.354;2022-09-20T13:28:20;17.10;70.50
38910;DHT22;24676;51.360;12.354;2022-09-20T13:31:31;17.40;69.70
38910;DHT22;24676;51.360;12.354;2022-09-20T13:34:22;17.60;69.20
38910;DHT22;24676;51.360;12.354;2022-09-20T13:37:21;17.60;66.90
38910;DHT22;24676;51.360;12.354;2022-09-20T13:40:19;17.50;65.80
38910;DHT22;24676;51.360;12.354;2022-09-20T13:43:22;17.60;66.30
38910;DHT22;24676;51.360;12.354;2022-09-20T13:46:09;17.80;66.00
38910;DHT22;24676;51.360;12.354;2022-09-20T13:49:17;18.00;66.10
38910;DHT22;24676;51.360;12.354;2022-09-20T13:52:23;18.40;67.70
38910;DHT22;24676;51.360;12.354;2022-09-20T13:58:31;17.80;68.40
38910;DHT22;24676;51.360;12.354;2022-09-20T14:01:36;17.30;69.90
38910;DHT22;24676;51.360;12.354;2022-09-20T14:04:23;16.80;70.20
38910;DHT22;24676;51.360;12.354;2022-09-20T14:07:09;16.40;71.90
38910;DHT22;24676;51.360;12.354;2022-09-20T14:09:55;16.10;74.70
38910;DHT22;24676;51.360;12.354;2022-09-20T14:12:39;16.00;77.70
38910;DHT22;24676;51.360;12.354;2022-09-20T14:15:25;16.10;79.50
38910;DHT22;24676;51.360;12.354;2022-09-20T14:18:17;16.20;80.00
38910;DHT22;24676;51.360;12.354;2022-09-20T14:21:08;16.30;78.50
38910;DHT22;24676;51.360;12.354;2022-09-20T14:26:42;16.20;76.10
38910;DHT22;24676;51.360;12.354;2022-09-20T14:29:40;16.10;75.80
38910;DHT22;24676;51.360;12.354;2022-09-20T14:35:20;16.20;75.10
38910;DHT22;24676;51.360;12.354;2022-09-20T14:38:08;16.20;75.10
38910;DHT22;24676;51.360;12.354;2022-09-20T14:40:53;16.10;74.10
38910;DHT22;24676;51.360;12.354;2022-09-20T14:43:38;16.00;74.80
38910;DHT22;24676;51.360;12.354;2022-09-20T14:46:29;15.80;76.90
38910;DHT22;24676;51.360;12.354;2022-09-20T14:58:03;15.40;74.50
38910;DHT22;24676;51.360;12.354;2022-09-20T15:00:58;15.30;73.60
38910;DHT22;24676;51.360;12.354;2022-09-20T15:03:44;15.30;73.00
38910;DHT22;24676;51.360;12.354;2022-09-20T15:06:28;15.20;71.50
38910;DHT22;24676;51.360;12.354;2022-09-20T15:09:13;15.20;72.00
38910;DHT22;24676;51.360;12.354;2022-09-20T15:12:19;15.10;73.70
38910;DHT22;24676;51.360;12.354;2022-09-20T15:15:04;15.10;75.10
38910;DHT22;24676;51.360;12.354;2022-09-20T15:17:48;15.00;72.70
38910;DHT22;24676;51.360;12.354;2022-09-20T15:20:33;15.00;72.10
38910;DHT22;24676;51.360;12.354;2022-09-20T15:23:17;14.90;72.40
38910;DHT22;24676;51.360;12.354;2022-09-20T15:26:02;14.90;73.90
38910;DHT22;24676;51.360;12.354;2022-09-20T15:28:47;14.90;76.70
38910;DHT22;24676;51.360;12.354;2022-09-20T15:31:31;14.90;76.40
38910;DHT22;24676;51.360;12.354;2022-09-20T15:34:15;14.90;77.10
38910;DHT22;24676;51.360;12.354;2022-09-20T15:36:59;14.90;76.70
38910;DHT22;24676;51.360;12.354;2022-09-20T15:39:43;14.90;77.40
38910;DHT22;24676;51.360;12.354;2022-09-20T15:42:28;14.90;80.90
38910;DHT22;24676;51.360;12.354;2022-09-20T15:45:12;14.90;83.00
38910;DHT22;24676;51.360;12.354;2022-09-20T15:47:56;14.90;85.00
38910;DHT22;24676;51.360;12.354;2022-09-20T15:50:40;14.90;84.20
38910;DHT22;24676;51.360;12.354;2022-09-20T15:53:30;14.80;83.80
38910;DHT22;24676;51.360;12.354;2022-09-20T15:56:17;14.80;86.20
38910;DHT22;24676;51.360;12.354;2022-09-20T15:59:10;14.70;87.90
38910;DHT22;24676;51.360;12.354;2022-09-20T16:01:54;14.70;88.40
38910;DHT22;24676;51.360;12.354;2022-09-20T16:04:38;14.60;89.70
38910;DHT22;24676;51.360;12.354;2022-09-20T16:07:22;14.50;90.00
38910;DHT22;24676;51.360;12.354;2022-09-20T16:10:09;14.50;90.80
38910;DHT22;24676;51.360;12.354;2022-09-20T16:12:53;14.50;91.80
38910;DHT22;24676;51.360;12.354;2022-09-20T16:15:37;14.40;92.40
38910;DHT22;24676;51.360;12.354;2022-09-20T16:18:21;14.30;94.00
38910;DHT22;24676;51.360;12.354;2022-09-20T16:21:25;14.30;94.80
38910;DHT22;24676;51.360;12.354;2022-09-20T16:24:09;14.20;95.50
38910;DHT22;24676;51.360;12.354;2022-09-20T16:26:55;14.20;97.20
38910;DHT22;24676;51.360;12.354;2022-09-20T16:29:40;14.10;97.90
38910;DHT22;24676;51.360;12.354;2022-09-20T16:32:24;14.00;98.70
38910;DHT22;24676;51.360;12.354;2022-09-20T16:35:09;13.90;99.60
38910;DHT22;24676;51.360;12.354;2022-09-20T16:37:54;13.80;99.90
38910;DHT22;24676;51.360;12.354;2022-09-20T16:40:38;13.60;99.90
38910;DHT22;24676;51.360;12.354;2022-09-20T16:43:22;13.60;99.70
38910;DHT22;24676;51.360;12.354;2022-09-20T16:46:09;13.40;99.60
38910;DHT22;24676;51.360;12.354;2022-09-20T16:48:54;13.40;98.30
38910;DHT22;24676;51.360;12.354;2022-09-20T16:51:41;13.30;97.30
38910;DHT22;24676;51.360;12.354;2022-09-20T16:54:25;13.20;97.70
38910;DHT22;24676;51.360;12.354;2022-09-20T16:57:10;13.00;98.20
38910;DHT22;24676;51.360;12.354;2022-09-20T16:59:56;12.90;99.00
38910;DHT22;24676;51.360;12.354;2022-09-20T17:02:40;12.70;99.70
38910;DHT22;24676;51.360;12.354;2022-09-20T17:05:25;12.60;99.90
38910;DHT22;24676;51.360;12.354;2022-09-20T17:08:09;12.50;99.90
38910;DHT22;24676;51.360;12.354;2022-09-20T17:10:58;12.40;99.90
38910;DHT22;24676;51.360;12.354;2022-09-20T17:13:43;12.20;99.90
38910;DHT22;24676;51.360;12.354;2022-09-20T17:16:30;12.20;99.90
38910;DHT22;24676;51.360;12.354;2022-09-20T17:19:19;12.00;99.90
38910;DHT22;24676;51.360;12.354;2022-09-20T17:22:03;11.90;99.90
38910;DHT22;24676;51.360;12.354;2022-09-20T17:24:49;11.80;99.90
38910;DHT22;24676;51.360;12.354;2022-09-20T17:27:34;11.70;99.90
38910;DHT22;24676;51.360;12.354;2022-09-20T17:30:22;11.50;99.90
38910;DHT22;24676;51.360;12.354;2022-09-20T17:33:06;11.40;99.90
38910;DHT22;24676;51.360;12.354;2022-09-20T17:35:51;11.30;99.90
38910;DHT22;24676;51.360;12.354;2022-09-20T17:38:35;11.20;99.90
38910;DHT22;24676;51.360;12.354;2022-09-20T17:41:20;11.00;99.90
38910;DHT22;24676;51.360;12.354;2022-09-20T17:44:05;10.90;99.90
38910;DHT22;24676;51.360;12.354;2022-09-20T17:46:53;10.80;99.90
38910;DHT22;24676;51.360;12.354;2022-09-20T17:49:37;10.70;99.90
38910;DHT22;24676;51.360;12.354;2022-09-20T17:52:23;10.60;99.90
38910;DHT22;24676;51.360;12.354;2022-09-20T17:55:07;10.40;99.90
38910;DHT22;24676;51.360;12.354;2022-09-20T17:57:51;10.40;99.90
38910;DHT22;24676;51.360;12.354;2022-09-20T18:00:35;10.30;99.90
38910;DHT22;24676;51.360;12.354;2022-09-20T18:03:21;10.20;99.90
38910;DHT22;24676;51.360;12.354;2022-09-20T18:09:04;10.10;99.90
38910;DHT22;24676;51.360;12.354;2022-09-20T18:11:50;10.00;99.90
38910;DHT22;24676;51.360;12.354;2022-09-20T18:14:35;10.00;99.90
38910;DHT22;24676;51.360;12.354;2022-09-20T18:17:19;10.00;99.90
38910;DHT22;24676;51.360;12.354;2022-09-20T18:20:04;10.00;99.90
38910;DHT22;24676;51.360;12.354;2022-09-20T18:22:49;10.00;99.90
38910;DHT22;24676;51.360;12.354;2022-09-20T18:25:34;10.00;99.90
38910;DHT22;24676;51.360;12.354;2022-09-20T18:28:38;10.10;99.90
38910;DHT22;24676;51.360;12.354;2022-09-20T18:31:31;10.10;99.90
38910;DHT22;24676;51.360;12.354;2022-09-20T18:34:23;10.20;99.90
38910;DHT22;24676;51.360;12.354;2022-09-20T18:37:08;10.30;99.90
38910;DHT22;24676;51.360;12.354;2022-09-20T18:39:53;10.30;99.90
38910;DHT22;24676;51.360;12.354;2022-09-20T18:42:37;10.30;99.90
38910;DHT22;24676;51.360;12.354;2022-09-20T18:45:22;10.30;99.90
38910;DHT22;24676;51.360;12.354;2022-09-20T18:48:07;10.30;99.90
38910;DHT22;24676;51.360;12.354;2022-09-20T18:51:00;10.20;99.90
38910;DHT22;24676;51.360;12.354;2022-09-20T18:53:45;10.20;99.90
38910;DHT22;24676;51.360;12.354;2022-09-20T18:56:33;10.10;99.90
38910;DHT22;24676;51.360;12.354;2022-09-20T18:59:21;10.10;99.90
38910;DHT22;24676;51.360;12.354;2022-09-20T19:02:34;10.10;99.90
38910;DHT22;24676;51.360;12.354;2022-09-20T19:08:30;9.90;99.90
38910;DHT22;24676;51.360;12.354;2022-09-20T19:11:26;9.80;99.90
38910;DHT22;24676;51.360;12.354;2022-09-20T19:14:23;9.80;99.90
38910;DHT22;24676;51.360;12.354;2022-09-20T19:17:12;9.70;99.90
38910;DHT22;24676;51.360;12.354;2022-09-20T19:20:03;9.60;99.90
38910;DHT22;24676;51.360;12.354;2022-09-20T19:26:21;9.50;99.90
38910;DHT22;24676;51.360;12.354;2022-09-20T19:32:01;9.30;99.90
38910;DHT22;24676;51.360;12.354;2022-09-20T19:34:50;9.30;99.90
38910;DHT22;24676;51.360;12.354;2022-09-20T19:37:54;9.20;99.90
38910;DHT22;24676;51.360;12.354;2022-09-20T19:41:03;9.20;99.90
38910;DHT22;24676;51.360;12.354;2022-09-20T19:44:04;9.10;99.90
38910;DHT22;24676;51.360;12.354;2022-09-20T19:47:01;9.00;99.90
38910;DHT22;24676;51.360;12.354;2022-09-20T19:49:55;9.00;99.90
38910;DHT22;24676;51.360;12.354;2022-09-20T19:52:42;9.00;99.90
38910;DHT22;24676;51.360;12.354;2022-09-20T19:55:26;8.90;99.90
38910;DHT22;24676;51.360;12.354;2022-09-20T19:58:11;8.90;99.90
38910;DHT22;24676;51.360;12.354;2022-09-20T20:00:55;8.90;99.90
38910;DHT22;24676;51.360;12.354;2022-09-20T20:03:41;8.80;99.90
38910;DHT22;24676;51.360;12.354;2022-09-20T20:06:31;8.70;99.90
38910;DHT22;24676;51.360;12.354;2022-09-20T20:12:48;8.50;99.90
38910;DHT22;24676;51.360;12.354;2022-09-20T20:15:46;8.40;99.90
38910;DHT22;24676;51.360;12.354;2022-09-20T20:22:04;8.40;99.90
38910;DHT22;24676;51.360;12.354;2022-09-20T20:24:52;8.30;99.90
38910;DHT22;24676;51.360;12.354;2022-09-20T20:27:36;8.30;99.90
38910;DHT22;24676;51.360;12.354;2022-09-20T20:30:21;8.20;99.90
38910;DHT22;24676;51.360;12.354;2022-09-20T20:33:05;8.20;99.90
38910;DHT22;24676;51.360;12.354;2022-09-20T20:35:54;8.10;99.90
38910;DHT22;24676;51.360;12.354;2022-09-20T20:38:41;8.10;99.90
38910;DHT22;24676;51.360;12.354;2022-09-20T20:41:29;8.10;99.90
38910;DHT22;24676;51.360;12.354;2022-09-20T20:44:14;8.10;99.90
38910;DHT22;24676;51.360;12.354;2022-09-20T20:47:00;8.10;99.90
38910;DHT22;24676;51.360;12.354;2022-09-20T20:49:44;8.00;99.90
38910;DHT22;24676;51.360;12.354;2022-09-20T20:52:30;8.00;99.90
38910;DHT22;24676;51.360;12.354;2022-09-20T20:55:14;8.00;99.90
38910;DHT22;24676;51.360;12.354;2022-09-20T20:57:58;8.00;99.90
